createdAt,value
2023-03-26T00:01:41.571Z,6.40
2023-03-26T00:04:43.813Z,6.40
2023-03-26T00:07:46.154Z,6.40
2023-03-26T00:10:47.796Z,6.30
2023-03-26T00:13:50.121Z,6.40
2023-03-26T00:16:53.610Z,6.40
2023-03-26T00:19:57.086Z,6.40
2023-03-26T00:23:01.554Z,6.40
2023-03-26T00:26:03.842Z,6.40
2023-03-26T00:29:06.680Z,6.40
2023-03-26T00:32:08.525Z,6.50
2023-03-26T00:35:11.011Z,6.40
2023-03-26T00:38:15.966Z,6.50
2023-03-26T00:41:22.785Z,6.50
2023-03-26T00:44:24.483Z,6.50
2023-03-26T00:47:29.694Z,6.50
2023-03-26T00:50:31.386Z,6.50
2023-03-26T00:53:33.436Z,6.50
2023-03-26T00:56:35.719Z,6.50
2023-03-26T00:59:38.161Z,6.50
2023-03-26T01:02:39.879Z,6.50
2023-03-26T01:05:52.952Z,6.50
2023-03-26T01:09:00.033Z,6.50
2023-03-26T01:12:04.841Z,6.50
2023-03-26T01:19:56.578Z,6.50
2023-03-26T01:23:06.204Z,6.50
2023-03-26T01:26:26.098Z,6.50
2023-03-26T01:29:27.751Z,6.50
2023-03-26T01:32:48.590Z,6.60
2023-03-26T01:36:16.471Z,6.60
2023-03-26T01:39:31.820Z,6.60
2023-03-26T01:42:41.740Z,6.60
2023-03-26T01:45:46.229Z,6.60
2023-03-26T01:48:48.779Z,6.70
2023-03-26T01:51:51.227Z,6.60
2023-03-26T01:54:55.492Z,6.70
2023-03-26T01:58:24.432Z,6.70
2023-03-26T02:01:30.167Z,6.70
2023-03-26T02:04:44.426Z,6.70
2023-03-26T02:07:52.929Z,6.70
2023-03-26T02:10:58.060Z,6.70
2023-03-26T02:13:59.811Z,6.70
2023-03-26T02:17:01.539Z,6.70
2023-03-26T02:20:06.280Z,6.70
2023-03-26T02:23:08.728Z,6.70
2023-03-26T02:26:11.234Z,6.70
2023-03-26T02:29:14.489Z,6.70
2023-03-26T02:32:16.344Z,6.70
2023-03-26T02:35:18.143Z,6.70
2023-03-26T02:38:19.871Z,6.60
2023-03-26T02:41:21.537Z,6.60
2023-03-26T02:44:23.214Z,6.70
2023-03-26T02:47:24.920Z,6.60
2023-03-26T02:50:26.965Z,6.60
2023-03-26T02:53:31.304Z,6.70
2023-03-26T02:56:33.229Z,6.60
2023-03-26T02:59:34.897Z,6.60
2023-03-26T03:02:38.590Z,6.60
2023-03-26T03:05:43.152Z,6.60
2023-03-26T03:08:46.117Z,6.60
2023-03-26T03:11:47.805Z,6.60
2023-03-26T03:14:49.505Z,6.60
2023-03-26T03:17:51.524Z,6.60
2023-03-26T03:20:53.970Z,6.50
2023-03-26T03:23:56.177Z,6.50
2023-03-26T03:27:02.175Z,6.60
2023-03-26T03:30:04.361Z,6.60
2023-03-26T03:33:06.426Z,6.60
2023-03-26T03:36:20.964Z,6.60
2023-03-26T03:39:23.766Z,6.50
2023-03-26T03:42:27.313Z,6.50
2023-03-26T03:45:28.993Z,6.50
2023-03-26T03:48:30.702Z,6.40
2023-03-26T03:51:32.565Z,6.40
2023-03-26T03:54:34.377Z,6.40
2023-03-26T03:57:36.358Z,6.40
2023-03-26T04:00:38.298Z,6.40
2023-03-26T04:03:40.230Z,6.40
2023-03-26T04:06:41.992Z,6.40
2023-03-26T04:09:43.684Z,6.40
2023-03-26T04:12:45.608Z,6.40
2023-03-26T04:15:47.345Z,6.40
2023-03-26T04:18:49.224Z,6.40
2023-03-26T04:21:50.908Z,6.40
2023-03-26T04:24:54.367Z,6.40
2023-03-26T04:27:58.354Z,6.40
2023-03-26T04:31:02.075Z,6.30
2023-03-26T04:34:24.010Z,6.20
2023-03-26T04:37:44.376Z,6.20
2023-03-26T04:40:48.805Z,6.20
2023-03-26T04:43:50.602Z,6.10
2023-03-26T04:46:55.226Z,6.10
2023-03-26T04:49:56.986Z,6.10
2023-03-26T04:52:58.965Z,6.10
2023-03-26T04:56:09.029Z,6.10
2023-03-26T04:59:14.904Z,6.10
2023-03-26T05:02:18.102Z,6.10
2023-03-26T05:05:20.299Z,6.10
2023-03-26T05:08:22.010Z,6.10
2023-03-26T05:11:23.666Z,6.10
2023-03-26T05:14:25.550Z,6.10
2023-03-26T05:17:30.967Z,6.10
2023-03-26T05:20:33.279Z,6.10
2023-03-26T05:23:35.057Z,6.10
2023-03-26T05:26:37.479Z,6.10
2023-03-26T05:29:39.132Z,6.10
2023-03-26T05:32:40.999Z,6.20
2023-03-26T05:35:43.395Z,6.20
2023-03-26T05:38:49.377Z,6.20
2023-03-26T05:41:52.843Z,6.30
2023-03-26T05:44:54.554Z,6.30
2023-03-26T05:47:56.426Z,6.30
2023-03-26T05:50:58.736Z,6.40
2023-03-26T05:54:00.527Z,6.50
2023-03-26T05:57:02.203Z,6.70
2023-03-26T06:00:07.652Z,6.90
2023-03-26T06:03:12.729Z,7.10
2023-03-26T06:06:17.285Z,7.20
2023-03-26T06:09:18.946Z,7.20
2023-03-26T06:12:20.668Z,7.20
2023-03-26T06:15:22.375Z,7.10
2023-03-26T06:18:25.102Z,7.10
2023-03-26T06:21:27.739Z,7.10
2023-03-26T06:24:29.427Z,7.10
2023-03-26T06:27:31.136Z,7.10
2023-03-26T06:30:32.999Z,7.00
2023-03-26T06:33:34.768Z,7.00
2023-03-26T06:36:36.949Z,7.10
2023-03-26T06:39:38.695Z,7.10
2023-03-26T06:43:08.805Z,7.10
2023-03-26T06:46:03.072Z,7.10
2023-03-26T06:49:04.876Z,7.20
2023-03-26T06:52:06.576Z,7.10
2023-03-26T06:55:10.307Z,7.10
2023-03-26T06:58:13.431Z,7.20
2023-03-26T07:01:15.407Z,7.20
2023-03-26T07:04:35.914Z,7.20
2023-03-26T07:07:46.516Z,7.30
2023-03-26T07:10:48.998Z,7.30
2023-03-26T07:13:51.245Z,7.50
2023-03-26T07:16:53.058Z,7.50
2023-03-26T07:19:55.267Z,7.60
2023-03-26T07:23:00.328Z,7.60
2023-03-26T07:26:23.098Z,7.60
2023-03-26T07:34:02.385Z,7.60
2023-03-26T07:37:14.155Z,7.60
2023-03-26T07:40:43.624Z,7.60
2023-03-26T07:44:05.933Z,7.60
2023-03-26T07:47:40.765Z,7.60
2023-03-26T07:50:42.744Z,7.60
2023-03-26T07:53:44.965Z,7.60
2023-03-26T08:01:43.460Z,7.70
2023-03-26T08:05:18.891Z,7.70
2023-03-26T08:08:32.505Z,7.80
2023-03-26T08:11:39.850Z,7.90
2023-03-26T08:15:17.670Z,8.00
2023-03-26T08:18:26.044Z,8.00
2023-03-26T08:21:39.542Z,8.10
2023-03-26T08:25:01.277Z,8.20
2023-03-26T08:28:40.923Z,8.40
2023-03-26T08:31:46.386Z,8.60
2023-03-26T08:34:48.292Z,8.80
2023-03-26T08:37:50.024Z,9.00
2023-03-26T08:41:03.464Z,9.20
2023-03-26T08:44:33.875Z,9.40
2023-03-26T08:52:20.304Z,9.50
2023-03-26T08:55:38.236Z,9.40
2023-03-26T08:59:18.844Z,9.40
2023-03-26T09:02:20.653Z,9.40
2023-03-26T09:05:59.091Z,9.40
2023-03-26T09:09:31.304Z,9.50
2023-03-26T09:13:06.012Z,9.60
2023-03-26T09:16:28.757Z,9.70
2023-03-26T09:19:55.133Z,9.90
2023-03-26T09:23:25.707Z,10.10
2023-03-26T09:26:51.346Z,10.10
2023-03-26T09:30:17.966Z,10.20
2023-03-26T09:33:36.666Z,10.30
2023-03-26T09:36:51.857Z,10.30
2023-03-26T09:40:15.226Z,10.40
2023-03-26T09:43:30.023Z,10.40
2023-03-26T09:46:47.050Z,10.50
2023-03-26T09:50:13.964Z,10.60
2023-03-26T09:53:25.034Z,10.50
2023-03-26T09:56:58.754Z,10.60
2023-03-26T10:00:35.901Z,10.60
2023-03-26T10:03:49.661Z,10.60
2023-03-26T10:07:08.587Z,10.60
2023-03-26T10:10:43.552Z,10.60
2023-03-26T10:14:13.158Z,10.60
2023-03-26T10:17:36.888Z,10.60
2023-03-26T10:20:59.238Z,10.50
2023-03-26T10:24:14.054Z,10.50
2023-03-26T10:27:44.781Z,10.40
2023-03-26T10:31:23.519Z,10.40
2023-03-26T10:34:56.459Z,10.20
2023-03-26T10:38:04.705Z,10.10
2023-03-26T10:41:21.735Z,10.00
2023-03-26T10:44:50.800Z,9.80
2023-03-26T10:48:02.207Z,9.60
2023-03-26T10:51:23.322Z,9.50
2023-03-26T10:54:53.665Z,9.40
2023-03-26T10:58:05.490Z,9.20
2023-03-26T11:01:42.398Z,9.10
2023-03-26T11:05:18.669Z,9.10
2023-03-26T11:08:43.585Z,9.10
2023-03-26T11:16:36.649Z,9.10
2023-03-26T11:19:49.834Z,9.20
2023-03-26T11:23:04.820Z,9.40
2023-03-26T11:26:11.885Z,9.40
2023-03-26T11:29:34.355Z,9.50
2023-03-26T11:33:00.196Z,9.50
2023-03-26T11:36:08.708Z,9.50
2023-03-26T11:39:20.261Z,9.50
2023-03-26T11:42:24.097Z,9.50
2023-03-26T11:45:30.987Z,9.40
2023-03-26T11:48:39.612Z,9.30
2023-03-26T11:51:42.925Z,9.20
2023-03-26T11:54:48.360Z,8.80
2023-03-26T11:57:58.183Z,8.40
2023-03-26T12:01:04.601Z,8.30
2023-03-26T12:04:13.540Z,8.20
2023-03-26T12:07:30.346Z,8.30
2023-03-26T12:10:39.243Z,8.20
2023-03-26T12:13:44.650Z,8.20
2023-03-26T12:17:07.763Z,8.30
2023-03-26T12:20:34.661Z,8.20
2023-03-26T12:23:56.394Z,8.20
2023-03-26T12:27:21.905Z,8.30
2023-03-26T12:30:25.569Z,8.30
2023-03-26T12:33:30.007Z,8.40
2023-03-26T12:36:39.314Z,8.40
2023-03-26T12:40:08.862Z,8.50
2023-03-26T12:44:50.126Z,8.50
2023-03-26T12:48:00.298Z,8.50
2023-03-26T12:50:54.731Z,8.40
2023-03-26T12:54:16.101Z,8.30
2023-03-26T12:57:18.260Z,8.30
2023-03-26T13:00:38.237Z,8.30
2023-03-26T13:03:45.353Z,8.30
2023-03-26T13:07:00.663Z,8.30
2023-03-26T13:10:29.875Z,8.40
2023-03-26T13:14:00.789Z,8.50
2023-03-26T13:17:19.969Z,8.50
2023-03-26T13:20:40.000Z,8.60
2023-03-26T13:23:47.510Z,8.60
2023-03-26T13:27:16.837Z,8.70
2023-03-26T13:30:39.334Z,8.70
2023-03-26T13:34:19.715Z,8.80
2023-03-26T13:37:45.780Z,8.90
2023-03-26T13:41:22.361Z,8.90
2023-03-26T13:44:45.232Z,8.80
2023-03-26T13:47:50.621Z,8.80
2023-03-26T13:51:07.278Z,8.70
2023-03-26T13:54:32.323Z,8.60
2023-03-26T13:57:40.139Z,8.60
2023-03-26T14:00:47.666Z,8.50
2023-03-26T14:04:17.731Z,8.50
2023-03-26T14:07:25.389Z,8.40
2023-03-26T14:10:35.333Z,8.30
2023-03-26T14:13:53.967Z,8.20
2023-03-26T14:17:16.430Z,8.10
2023-03-26T14:20:27.405Z,8.10
2023-03-26T14:28:27.239Z,8.00
2023-03-26T14:31:51.666Z,8.00
2023-03-26T14:35:11.398Z,8.00
2023-03-26T14:38:32.836Z,8.10
2023-03-26T14:41:46.609Z,8.10
2023-03-26T14:45:05.824Z,8.00
2023-03-26T14:48:37.910Z,8.20
2023-03-26T14:51:58.314Z,8.20
2023-03-26T14:55:03.843Z,8.30
2023-03-26T14:58:37.792Z,8.40
2023-03-26T15:02:16.217Z,8.40
2023-03-26T15:05:36.293Z,8.50
2023-03-26T15:08:58.587Z,8.50
2023-03-26T15:12:12.721Z,8.50
2023-03-26T15:15:46.408Z,8.50
2023-03-26T15:19:37.957Z,8.60
2023-03-26T15:23:07.614Z,8.50
2023-03-26T15:26:57.556Z,8.50
2023-03-26T15:30:17.773Z,8.40
2023-03-26T15:33:46.821Z,8.40
2023-03-26T15:37:05.786Z,8.50
2023-03-26T15:40:40.415Z,8.40
2023-03-26T15:44:25.740Z,8.30
2023-03-26T15:47:50.953Z,8.30
2023-03-26T15:51:19.761Z,8.30
2023-03-26T15:54:36.960Z,8.30
2023-03-26T15:57:39.100Z,8.30
2023-03-26T16:00:55.310Z,8.20
2023-03-26T16:04:09.272Z,8.20
2023-03-26T16:07:41.345Z,8.20
2023-03-26T16:10:54.167Z,8.10
2023-03-26T16:14:24.321Z,8.00
2023-03-26T16:17:26.468Z,8.00
2023-03-26T16:20:54.830Z,7.90
2023-03-26T16:24:11.160Z,7.90
2023-03-26T16:27:12.861Z,7.80
2023-03-26T16:30:30.229Z,7.70
2023-03-26T16:33:39.366Z,7.60
2023-03-26T16:36:46.062Z,7.60
2023-03-26T16:39:48.194Z,7.60
2023-03-26T16:43:20.340Z,7.60
2023-03-26T16:47:01.346Z,7.60
2023-03-26T16:50:15.356Z,7.60
2023-03-26T16:53:33.182Z,7.50
2023-03-26T16:56:50.712Z,7.50
2023-03-26T17:00:23.482Z,7.50
2023-03-26T17:03:53.174Z,7.50
2023-03-26T17:07:24.121Z,7.30
2023-03-26T17:10:51.475Z,7.30
2023-03-26T17:14:03.627Z,7.20
2023-03-26T17:17:19.978Z,7.20
2023-03-26T17:20:57.778Z,7.20
2023-03-26T17:24:33.259Z,7.10
2023-03-26T17:27:48.111Z,7.10
2023-03-26T17:31:03.393Z,7.10
2023-03-26T17:38:47.355Z,7.00
2023-03-26T17:41:55.328Z,7.00
2023-03-26T17:44:58.671Z,6.90
2023-03-26T17:48:15.574Z,6.80
2023-03-26T17:51:44.276Z,6.70
2023-03-26T17:54:47.956Z,6.70
2023-03-26T17:57:57.109Z,6.70
2023-03-26T18:01:08.032Z,6.60
2023-03-26T18:04:19.795Z,6.60
2023-03-26T18:07:46.470Z,6.60
2023-03-26T18:11:43.559Z,6.50
2023-03-26T18:14:57.874Z,6.50
2023-03-26T18:18:47.495Z,6.50
2023-03-26T18:22:16.063Z,6.40
2023-03-26T18:25:30.399Z,6.30
2023-03-26T18:28:40.846Z,6.40
2023-03-26T18:31:48.867Z,6.30
2023-03-26T18:34:59.223Z,6.30
2023-03-26T18:38:00.992Z,6.30
2023-03-26T18:41:03.554Z,6.30
2023-03-26T18:44:07.851Z,6.30
2023-03-26T18:47:11.950Z,6.30
2023-03-26T18:50:22.535Z,6.30
2023-03-26T18:53:29.673Z,6.20
2023-03-26T18:56:40.413Z,6.20
2023-03-26T18:59:45.302Z,6.10
2023-03-26T19:02:57.487Z,6.10
2023-03-26T19:06:02.329Z,6.10
2023-03-26T19:09:20.100Z,6.10
2023-03-26T19:12:33.972Z,6.00
2023-03-26T19:15:36.244Z,6.00
2023-03-26T19:18:44.278Z,6.00
2023-03-26T19:21:46.539Z,6.00
2023-03-26T19:24:50.538Z,5.90
2023-03-26T19:27:52.569Z,5.90
2023-03-26T19:30:57.682Z,5.90
2023-03-26T19:34:31.515Z,5.90
2023-03-26T19:37:33.206Z,5.90
2023-03-26T19:40:34.998Z,5.90
2023-03-26T19:43:36.799Z,5.80
2023-03-26T19:46:53.841Z,5.80
2023-03-26T19:49:58.493Z,5.80
2023-03-26T19:53:18.862Z,5.80
2023-03-26T19:56:22.071Z,5.70
2023-03-26T19:59:52.969Z,5.70
2023-03-26T20:02:54.795Z,5.60
2023-03-26T20:05:56.745Z,5.60
2023-03-26T20:08:58.466Z,5.60
2023-03-26T20:12:00.369Z,5.60
2023-03-26T20:15:02.796Z,5.50
2023-03-26T20:18:04.524Z,5.50
2023-03-26T20:21:12.208Z,5.50
2023-03-26T20:24:17.014Z,5.40
2023-03-26T20:27:19.255Z,5.40
2023-03-26T20:30:36.849Z,5.40
2023-03-26T20:33:39.650Z,5.30
2023-03-26T20:36:41.535Z,5.30
2023-03-26T20:40:00.724Z,5.30
2023-03-26T20:43:02.568Z,5.20
2023-03-26T20:47:06.403Z,5.20
2023-03-26T20:50:24.610Z,5.20
2023-03-26T20:53:43.925Z,5.00
2023-03-26T20:56:47.628Z,5.00
2023-03-26T21:00:21.761Z,4.90
2023-03-26T21:03:23.446Z,4.90
2023-03-26T21:06:26.341Z,4.80
2023-03-26T21:09:35.306Z,4.70
2023-03-26T21:12:45.015Z,4.70
2023-03-26T21:15:47.099Z,4.60
2023-03-26T21:18:49.097Z,4.60
2023-03-26T21:22:19.647Z,4.60
2023-03-26T21:25:53.112Z,4.50
2023-03-26T21:28:54.936Z,4.50
2023-03-26T21:31:57.094Z,4.50
2023-03-26T21:34:59.637Z,4.50
2023-03-26T21:38:04.370Z,4.40
2023-03-26T21:42:05.455Z,4.40
2023-03-26T21:45:08.609Z,4.30
2023-03-26T21:48:10.882Z,4.30
2023-03-26T21:51:14.853Z,4.20
2023-03-26T21:54:23.066Z,4.20
2023-03-26T21:57:39.721Z,4.20
2023-03-26T22:01:06.352Z,4.10
2023-03-26T22:04:26.647Z,4.10
2023-03-26T22:07:58.637Z,4.00
2023-03-26T22:11:00.651Z,3.90
2023-03-26T22:14:02.791Z,3.90
2023-03-26T22:17:05.274Z,3.90
2023-03-26T22:20:12.554Z,3.90
2023-03-26T22:23:14.397Z,3.80
2023-03-26T22:26:17.589Z,3.80
2023-03-26T22:29:19.250Z,3.80
2023-03-26T22:32:21.238Z,3.70
2023-03-26T22:35:22.982Z,3.70
2023-03-26T22:38:24.674Z,3.60
2023-03-26T22:41:26.417Z,3.60
2023-03-26T22:44:28.141Z,3.60
2023-03-26T22:47:30.678Z,3.50
2023-03-26T22:50:32.972Z,3.50
2023-03-26T22:53:35.177Z,3.50
2023-03-26T22:56:37.152Z,3.40
2023-03-26T22:59:38.910Z,3.40
2023-03-26T23:02:41.097Z,3.40
2023-03-26T23:05:43.152Z,3.30
2023-03-26T23:08:44.815Z,3.30
2023-03-26T23:11:46.730Z,3.30
2023-03-26T23:14:52.257Z,3.30
2023-03-26T23:17:54.615Z,3.20
2023-03-26T23:20:58.027Z,3.20
2023-03-26T23:23:59.956Z,3.10
2023-03-26T23:27:01.703Z,3.10
2023-03-26T23:30:04.509Z,3.10
2023-03-26T23:33:06.198Z,3.00
2023-03-26T23:36:09.116Z,3.00
2023-03-26T23:39:11.039Z,3.00
2023-03-26T23:42:12.668Z,3.00
2023-03-26T23:45:14.368Z,3.00
2023-03-26T23:48:17.514Z,3.00
2023-03-26T23:51:20.350Z,2.90
2023-03-26T23:54:25.570Z,2.90
2023-03-26T23:57:27.343Z,2.90
